sensor_id;sensor_type;location;lat;lon;timestamp;pressure;altitude;pressure_sealevel;temperature;humidity
2549;BME280;1284;53.520;10.248;2023-08-21T00:00:13;101526.72;;;21.83;86.81
2549;BME280;1284;53.520;10.248;2023-08-21T00:02:39;101534.97;;;21.76;86.33
2549;BME280;1284;53.520;10.248;2023-08-21T00:05:07;101525.63;;;21.73;87.17
2549;BME280;1284;53.520;10.248;2023-08-21T00:07:34;101525.66;;;21.70;87.52
2549;BME280;1284;53.520;10.248;2023-08-21T00:09:59;101525.28;;;21.68;87.26
2549;BME280;1284;53.520;10.248;2023-08-21T00:12:25;101529.63;;;21.65;86.76
2549;BME280;1284;53.520;10.248;2023-08-21T00:14:50;101524.97;;;21.62;87.36
2549;BME280;1284;53.520;10.248;2023-08-21T00:17:16;101522.22;;;21.62;87.07
2549;BME280;1284;53.520;10.248;2023-08-21T00:19:41;101527.69;;;21.62;87.39
2549;BME280;1284;53.520;10.248;2023-08-21T00:22:06;101524.66;;;21.53;87.60
2549;BME280;1284;53.520;10.248;2023-08-21T00:24:32;101517.22;;;21.53;87.42
2549;BME280;1284;53.520;10.248;2023-08-21T00:26:58;101521.34;;;21.31;88.11
2549;BME280;1284;53.520;10.248;2023-08-21T00:29:23;101526.06;;;21.31;88.36
2549;BME280;1284;53.520;10.248;2023-08-21T00:31:49;101527.94;;;21.37;88.34
2549;BME280;1284;53.520;10.248;2023-08-21T00:34:17;101525.66;;;21.32;88.03
2549;BME280;1284;53.520;10.248;2023-08-21T00:39:28;101524.13;;;21.28;88.32
2549;BME280;1284;53.520;10.248;2023-08-21T00:41:54;101523.75;;;21.26;87.61
2549;BME280;1284;53.520;10.248;2023-08-21T00:44:19;101533.16;;;21.25;88.06
2549;BME280;1284;53.520;10.248;2023-08-21T00:46:45;101527.34;;;21.19;88.10
2549;BME280;1284;53.520;10.248;2023-08-21T00:49:11;101516.06;;;21.10;88.55
2549;BME280;1284;53.520;10.248;2023-08-21T00:51:36;101520.00;;;21.09;88.72
2549;BME280;1284;53.520;10.248;2023-08-21T00:54:03;101523.81;;;21.19;88.07
2549;BME280;1284;53.520;10.248;2023-08-21T00:56:29;101517.63;;;21.11;88.05
2549;BME280;1284;53.520;10.248;2023-08-21T00:58:54;101517.66;;;21.08;88.39
2549;BME280;1284;53.520;10.248;2023-08-21T01:01:23;101525.91;;;21.04;87.83
2549;BME280;1284;53.520;10.248;2023-08-21T01:03:51;101529.81;;;21.03;87.70
2549;BME280;1284;53.520;10.248;2023-08-21T01:06:18;101531.00;;;20.99;87.81
2549;BME280;1284;53.520;10.248;2023-08-21T01:08:55;101526.75;;;20.94;88.05
2549;BME280;1284;53.520;10.248;2023-08-21T01:11:39;101520.19;;;20.81;88.27
2549;BME280;1284;53.520;10.248;2023-08-21T01:14:36;101526.13;;;20.73;88.71
2549;BME280;1284;53.520;10.248;2023-08-21T01:17:04;101520.25;;;20.74;89.17
2549;BME280;1284;53.520;10.248;2023-08-21T01:22:00;101523.72;;;20.78;88.60
2549;BME280;1284;53.520;10.248;2023-08-21T01:24:25;101519.38;;;20.84;88.07
2549;BME280;1284;53.520;10.248;2023-08-21T01:26:51;101522.91;;;20.81;87.59
2549;BME280;1284;53.520;10.248;2023-08-21T01:29:17;101528.84;;;20.76;87.82
2549;BME280;1284;53.520;10.248;2023-08-21T01:31:47;101525.38;;;20.68;88.20
2549;BME280;1284;53.520;10.248;2023-08-21T01:34:16;101529.69;;;20.66;88.48
2549;BME280;1284;53.520;10.248;2023-08-21T01:39:08;101528.72;;;20.32;89.93
2549;BME280;1284;53.520;10.248;2023-08-21T01:41:33;101524.03;;;20.36;89.80
2549;BME280;1284;53.520;10.248;2023-08-21T01:43:59;101532.97;;;20.43;89.93
2549;BME280;1284;53.520;10.248;2023-08-21T01:46:25;101529.00;;;20.48;89.69
2549;BME280;1284;53.520;10.248;2023-08-21T01:48:51;101533.31;;;20.49;89.65
2549;BME280;1284;53.520;10.248;2023-08-21T01:51:16;101539.56;;;20.53;89.27
2549;BME280;1284;53.520;10.248;2023-08-21T01:53:43;101546.19;;;20.52;89.70
2549;BME280;1284;53.520;10.248;2023-08-21T01:56:08;101534.09;;;20.53;89.50
2549;BME280;1284;53.520;10.248;2023-08-21T01:58:34;101532.59;;;20.41;89.79
2549;BME280;1284;53.520;10.248;2023-08-21T02:01:00;101522.03;;;20.36;90.05
2549;BME280;1284;53.520;10.248;2023-08-21T02:03:26;101526.72;;;20.39;89.75
2549;BME280;1284;53.520;10.248;2023-08-21T02:05:55;101535.31;;;20.41;89.54
2549;BME280;1284;53.520;10.248;2023-08-21T02:08:27;101528.31;;;20.37;89.91
2549;BME280;1284;53.520;10.248;2023-08-21T02:10:55;101530.63;;;20.38;89.80
2549;BME280;1284;53.520;10.248;2023-08-21T02:13:20;101520.53;;;20.28;90.40
2549;BME280;1284;53.520;10.248;2023-08-21T02:15:46;101524.03;;;20.29;90.13
2549;BME280;1284;53.520;10.248;2023-08-21T02:18:11;101526.81;;;20.22;90.21
2549;BME280;1284;53.520;10.248;2023-08-21T02:20:37;101531.13;;;20.16;91.16
2549;BME280;1284;53.520;10.248;2023-08-21T02:23:03;101529.97;;;20.17;90.92
2549;BME280;1284;53.520;10.248;2023-08-21T02:25:29;101527.22;;;20.17;90.56
2549;BME280;1284;53.520;10.248;2023-08-21T02:27:55;101524.47;;;20.17;91.04
2549;BME280;1284;53.520;10.248;2023-08-21T02:30:20;101528.78;;;20.21;90.94
2549;BME280;1284;53.520;10.248;2023-08-21T02:32:50;101528.75;;;20.18;90.39
2549;BME280;1284;53.520;10.248;2023-08-21T02:35:16;101533.06;;;20.15;90.86
2549;BME280;1284;53.520;10.248;2023-08-21T02:37:41;101526.84;;;20.18;90.44
2549;BME280;1284;53.520;10.248;2023-08-21T02:40:07;101536.19;;;20.17;90.32
2549;BME280;1284;53.520;10.248;2023-08-21T02:42:35;101536.22;;;20.14;90.39
2549;BME280;1284;53.520;10.248;2023-08-21T02:45:01;101533.13;;;20.08;90.74
2549;BME280;1284;53.520;10.248;2023-08-21T02:47:30;101533.13;;;20.08;90.56
2549;BME280;1284;53.520;10.248;2023-08-21T02:49:55;101541.72;;;20.07;90.77
2549;BME280;1284;53.520;10.248;2023-08-21T02:52:21;101546.41;;;20.06;90.85
2549;BME280;1284;53.520;10.248;2023-08-21T02:54:47;101535.44;;;20.10;90.54
2549;BME280;1284;53.520;10.248;2023-08-21T02:57:12;101552.25;;;20.08;90.27
2549;BME280;1284;53.520;10.248;2023-08-21T02:59:37;101543.25;;;20.08;89.99
2549;BME280;1284;53.520;10.248;2023-08-21T03:02:03;101553.44;;;20.04;90.19
2549;BME280;1284;53.520;10.248;2023-08-21T03:04:28;101549.16;;;19.96;90.70
2549;BME280;1284;53.520;10.248;2023-08-21T03:06:54;101548.00;;;20.00;90.94
2549;BME280;1284;53.520;10.248;2023-08-21T03:09:19;101543.31;;;20.01;90.72
2549;BME280;1284;53.520;10.248;2023-08-21T03:14:30;101545.28;;;19.97;90.86
2549;BME280;1284;53.520;10.248;2023-08-21T03:16:56;101551.53;;;19.97;90.76
2549;BME280;1284;53.520;10.248;2023-08-21T03:19:22;101550.31;;;20.02;90.57
2549;BME280;1284;53.520;10.248;2023-08-21T03:21:47;101551.94;;;19.89;91.33
2549;BME280;1284;53.520;10.248;2023-08-21T03:24:13;101555.09;;;19.84;91.36
2549;BME280;1284;53.520;10.248;2023-08-21T03:26:38;101553.53;;;19.79;92.14
2549;BME280;1284;53.520;10.248;2023-08-21T03:29:03;101552.34;;;19.84;92.00
2549;BME280;1284;53.520;10.248;2023-08-21T03:31:30;101553.53;;;19.75;91.27
2549;BME280;1284;53.520;10.248;2023-08-21T03:33:56;101546.53;;;19.71;92.03
2549;BME280;1284;53.520;10.248;2023-08-21T03:36:23;101550.44;;;19.70;91.60
2549;BME280;1284;53.520;10.248;2023-08-21T03:38:58;101550.44;;;19.73;91.24
2549;BME280;1284;53.520;10.248;2023-08-21T03:41:24;101538.69;;;19.73;91.28
2549;BME280;1284;53.520;10.248;2023-08-21T03:43:50;101538.31;;;19.74;90.96
2549;BME280;1284;53.520;10.248;2023-08-21T03:46:15;101538.31;;;19.67;91.16
2549;BME280;1284;53.520;10.248;2023-08-21T03:48:40;101555.13;;;19.69;90.88
2549;BME280;1284;53.520;10.248;2023-08-21T03:51:06;101543.78;;;19.67;91.21
2549;BME280;1284;53.520;10.248;2023-08-21T03:53:32;101552.41;;;19.59;91.16
2549;BME280;1284;53.520;10.248;2023-08-21T03:55:59;101543.06;;;19.56;91.65
2549;BME280;1284;53.520;10.248;2023-08-21T03:58:25;101545.78;;;19.60;91.43
2549;BME280;1284;53.520;10.248;2023-08-21T04:03:41;101548.13;;;19.58;91.33
2549;BME280;1284;53.520;10.248;2023-08-21T04:06:07;101549.69;;;19.62;91.46
2549;BME280;1284;53.520;10.248;2023-08-21T04:08:33;101551.63;;;19.62;91.15
2549;BME280;1284;53.520;10.248;2023-08-21T04:10:58;101556.72;;;19.60;91.26
2549;BME280;1284;53.520;10.248;2023-08-21T04:13:25;101552.78;;;19.57;91.56
2549;BME280;1284;53.520;10.248;2023-08-21T04:15:53;101557.50;;;19.50;91.31
2549;BME280;1284;53.520;10.248;2023-08-21T04:18:19;101553.19;;;19.45;91.93
2549;BME280;1284;53.520;10.248;2023-08-21T04:20:44;101543.84;;;19.50;92.21
2549;BME280;1284;53.520;10.248;2023-08-21T04:23:10;101543.44;;;19.51;92.40
2549;BME280;1284;53.520;10.248;2023-08-21T04:25:35;101553.97;;;19.56;92.13
2549;BME280;1284;53.520;10.248;2023-08-21T04:28:01;101560.25;;;19.46;92.81
2549;BME280;1284;53.520;10.248;2023-08-21T04:30:26;101553.59;;;19.51;92.80
2549;BME280;1284;53.520;10.248;2023-08-21T04:32:52;101549.69;;;19.48;92.44
2549;BME280;1284;53.520;10.248;2023-08-21T04:35:18;101553.22;;;19.49;92.99
2549;BME280;1284;53.520;10.248;2023-08-21T04:37:46;101560.63;;;19.48;93.15
2549;BME280;1284;53.520;10.248;2023-08-21T04:40:13;101555.56;;;19.50;92.75
2549;BME280;1284;53.520;10.248;2023-08-21T04:42:39;101555.16;;;19.48;92.71
2549;BME280;1284;53.520;10.248;2023-08-21T04:45:05;101557.50;;;19.46;93.17
2549;BME280;1284;53.520;10.248;2023-08-21T04:47:33;101561.41;;;19.49;93.16
2549;BME280;1284;53.520;10.248;2023-08-21T04:49:59;101566.88;;;19.45;93.55
2549;BME280;1284;53.520;10.248;2023-08-21T04:52:26;101563.38;;;19.48;93.06
2549;BME280;1284;53.520;10.248;2023-08-21T04:54:53;101570.78;;;19.44;93.65
2549;BME280;1284;53.520;10.248;2023-08-21T04:57:18;101566.09;;;19.48;93.85
2549;BME280;1284;53.520;10.248;2023-08-21T04:59:44;101564.94;;;19.42;94.32
2549;BME280;1284;53.520;10.248;2023-08-21T05:02:10;101566.50;;;19.47;94.29
2549;BME280;1284;53.520;10.248;2023-08-21T05:04:37;101558.28;;;19.54;94.10
2549;BME280;1284;53.520;10.248;2023-08-21T05:07:03;101564.50;;;19.58;94.16
2549;BME280;1284;53.520;10.248;2023-08-21T05:09:30;101569.19;;;19.68;93.92
2549;BME280;1284;53.520;10.248;2023-08-21T05:11:56;101573.06;;;19.77;93.99
2549;BME280;1284;53.520;10.248;2023-08-21T05:14:22;101577.38;;;19.82;94.36
2549;BME280;1284;53.520;10.248;2023-08-21T05:19:36;101576.16;;;19.97;95.11
2549;BME280;1284;53.520;10.248;2023-08-21T05:22:02;101585.13;;;20.01;95.33
2549;BME280;1284;53.520;10.248;2023-08-21T05:24:33;101583.91;;;20.09;95.34
2549;BME280;1284;53.520;10.248;2023-08-21T05:27:02;101584.66;;;20.13;95.50
2549;BME280;1284;53.520;10.248;2023-08-21T05:29:30;101587.03;;;20.22;95.78
2549;BME280;1284;53.520;10.248;2023-08-21T05:31:55;101585.41;;;20.31;95.67
2549;BME280;1284;53.520;10.248;2023-08-21T05:34:21;101586.53;;;20.41;95.20
2549;BME280;1284;53.520;10.248;2023-08-21T05:36:47;101578.31;;;20.41;96.12
2549;BME280;1284;53.520;10.248;2023-08-21T05:39:12;101578.28;;;20.48;95.87
2549;BME280;1284;53.520;10.248;2023-08-21T05:41:38;101579.03;;;20.55;96.21
2549;BME280;1284;53.520;10.248;2023-08-21T05:44:04;101583.66;;;20.65;95.89
2549;BME280;1284;53.520;10.248;2023-08-21T05:46:29;101583.22;;;20.74;95.43
2549;BME280;1284;53.520;10.248;2023-08-21T05:48:55;101585.13;;;20.84;95.26
2549;BME280;1284;53.520;10.248;2023-08-21T05:51:21;101581.94;;;20.89;94.86
2549;BME280;1284;53.520;10.248;2023-08-21T05:53:46;101588.53;;;20.99;94.77
2549;BME280;1284;53.520;10.248;2023-08-21T05:56:12;101593.59;;;21.07;94.47
2549;BME280;1284;53.520;10.248;2023-08-21T05:58:37;101590.41;;;21.12;94.37
2549;BME280;1284;53.520;10.248;2023-08-21T06:01:02;101595.84;;;21.19;94.31
2549;BME280;1284;53.520;10.248;2023-08-21T06:03:31;101598.19;;;21.21;93.82
2549;BME280;1284;53.520;10.248;2023-08-21T06:06:08;101594.22;;;21.29;94.36
2549;BME280;1284;53.520;10.248;2023-08-21T06:08:34;101599.16;;;21.44;93.70
2549;BME280;1284;53.520;10.248;2023-08-21T06:10:59;101601.00;;;21.54;93.14
2549;BME280;1284;53.520;10.248;2023-08-21T06:13:25;101595.47;;;21.62;93.17
2549;BME280;1284;53.520;10.248;2023-08-21T06:15:53;101605.63;;;21.65;93.05
2549;BME280;1284;53.520;10.248;2023-08-21T06:18:21;101606.69;;;21.74;93.12
2549;BME280;1284;53.520;10.248;2023-08-21T06:20:46;101600.00;;;21.79;93.09
2549;BME280;1284;53.520;10.248;2023-08-21T06:23:12;101606.25;;;21.83;92.97
2549;BME280;1284;53.520;10.248;2023-08-21T06:25:38;101602.59;;;21.96;93.07
2549;BME280;1284;53.520;10.248;2023-08-21T06:28:04;101614.16;;;22.11;92.18
2549;BME280;1284;53.520;10.248;2023-08-21T06:30:31;101605.34;;;22.26;92.21
2549;BME280;1284;53.520;10.248;2023-08-21T06:32:57;101613.28;;;22.51;91.08
2549;BME280;1284;53.520;10.248;2023-08-21T06:35:24;101618.53;;;22.72;90.51
2549;BME280;1284;53.520;10.248;2023-08-21T06:37:51;101620.19;;;22.93;89.10
2549;BME280;1284;53.520;10.248;2023-08-21T06:40:17;101614.41;;;23.10;88.66
2549;BME280;1284;53.520;10.248;2023-08-21T06:42:42;101616.84;;;23.32;88.04
2549;BME280;1284;53.520;10.248;2023-08-21T06:45:08;101622.78;;;23.53;86.92
2549;BME280;1284;53.520;10.248;2023-08-21T06:47:34;101626.91;;;23.65;85.81
2549;BME280;1284;53.520;10.248;2023-08-21T06:49:59;101623.13;;;23.78;84.77
2549;BME280;1284;53.520;10.248;2023-08-21T06:52:26;101625.53;;;23.96;83.69
2549;BME280;1284;53.520;10.248;2023-08-21T06:54:51;101628.94;;;24.03;83.57
2549;BME280;1284;53.520;10.248;2023-08-21T06:57:17;101630.38;;;24.11;82.81
2549;BME280;1284;53.520;10.248;2023-08-21T06:59:42;101625.41;;;24.23;82.16
2549;BME280;1284;53.520;10.248;2023-08-21T07:02:08;101617.59;;;24.41;80.91
2549;BME280;1284;53.520;10.248;2023-08-21T07:04:33;101634.94;;;24.57;80.85
2549;BME280;1284;53.520;10.248;2023-08-21T07:06:59;101627.53;;;24.70;79.31
2549;BME280;1284;53.520;10.248;2023-08-21T07:09:25;101634.00;;;24.83;79.23
2549;BME280;1284;53.520;10.248;2023-08-21T07:11:50;101630.81;;;25.01;78.61
2549;BME280;1284;53.520;10.248;2023-08-21T07:14:16;101634.97;;;24.93;76.72
2549;BME280;1284;53.520;10.248;2023-08-21T07:16:42;101640.47;;;24.93;75.85
2549;BME280;1284;53.520;10.248;2023-08-21T07:19:08;101633.22;;;24.99;76.17
2549;BME280;1284;53.520;10.248;2023-08-21T07:21:34;101627.81;;;25.12;75.99
2549;BME280;1284;53.520;10.248;2023-08-21T07:24:02;101631.78;;;25.27;75.73
2549;BME280;1284;53.520;10.248;2023-08-21T07:26:28;101633.00;;;25.42;74.97
2549;BME280;1284;53.520;10.248;2023-08-21T07:28:54;101633.94;;;25.51;74.08
2549;BME280;1284;53.520;10.248;2023-08-21T07:31:19;101625.50;;;25.58;73.52
2549;BME280;1284;53.520;10.248;2023-08-21T07:33:44;101624.09;;;25.66;73.00
2549;BME280;1284;53.520;10.248;2023-08-21T07:36:10;101635.19;;;25.79;72.85
2549;BME280;1284;53.520;10.248;2023-08-21T07:38:40;101632.78;;;25.81;72.31
2549;BME280;1284;53.520;10.248;2023-08-21T07:41:10;101639.66;;;25.89;71.44
2549;BME280;1284;53.520;10.248;2023-08-21T07:43:43;101643.19;;;25.89;70.34
2549;BME280;1284;53.520;10.248;2023-08-21T07:46:11;101635.88;;;26.12;69.40
2549;BME280;1284;53.520;10.248;2023-08-21T07:48:44;101641.75;;;26.14;69.61
2549;BME280;1284;53.520;10.248;2023-08-21T07:51:10;101644.59;;;26.39;67.71
2549;BME280;1284;53.520;10.248;2023-08-21T07:53:36;101650.69;;;26.46;66.93
2549;BME280;1284;53.520;10.248;2023-08-21T07:56:02;101636.78;;;26.62;66.66
2549;BME280;1284;53.520;10.248;2023-08-21T07:58:31;101631.19;;;26.78;66.11
2549;BME280;1284;53.520;10.248;2023-08-21T08:00:57;101637.59;;;26.88;64.92
2549;BME280;1284;53.520;10.248;2023-08-21T08:03:22;101639.94;;;27.02;64.20
2549;BME280;1284;53.520;10.248;2023-08-21T08:05:48;101634.72;;;27.04;63.60
2549;BME280;1284;53.520;10.248;2023-08-21T08:08:16;101644.44;;;27.09;61.32
2549;BME280;1284;53.520;10.248;2023-08-21T08:10:42;101636.94;;;27.34;61.26
2549;BME280;1284;53.520;10.248;2023-08-21T08:13:08;101644.84;;;27.45;60.79
2549;BME280;1284;53.520;10.248;2023-08-21T08:15:34;101632.44;;;27.62;60.43
2549;BME280;1284;53.520;10.248;2023-08-21T08:18:01;101639.16;;;27.74;58.34
2549;BME280;1284;53.520;10.248;2023-08-21T08:20:27;101639.22;;;27.83;56.56
2549;BME280;1284;53.520;10.248;2023-08-21T08:22:52;101633.09;;;28.00;55.77
2549;BME280;1284;53.520;10.248;2023-08-21T08:25:18;101634.50;;;28.05;56.78
2549;BME280;1284;53.520;10.248;2023-08-21T08:27:44;101638.94;;;28.24;56.04
2549;BME280;1284;53.520;10.248;2023-08-21T08:30:09;101637.31;;;28.35;55.15
2549;BME280;1284;53.520;10.248;2023-08-21T08:32:35;101636.44;;;28.47;54.83
2549;BME280;1284;53.520;10.248;2023-08-21T08:35:01;101638.06;;;28.58;54.59
2549;BME280;1284;53.520;10.248;2023-08-21T08:37:26;101642.09;;;28.57;54.12
2549;BME280;1284;53.520;10.248;2023-08-21T08:39:52;101640.47;;;28.68;54.45
2549;BME280;1284;53.520;10.248;2023-08-21T08:42:17;101636.81;;;28.80;53.41
2549;BME280;1284;53.520;10.248;2023-08-21T08:44:43;101636.06;;;28.89;52.75
2549;BME280;1284;53.520;10.248;2023-08-21T08:47:13;101643.66;;;28.97;52.63
2549;BME280;1284;53.520;10.248;2023-08-21T08:49:38;101635.66;;;28.99;52.11
2549;BME280;1284;53.520;10.248;2023-08-21T08:52:04;101647.88;;;29.11;53.08
2549;BME280;1284;53.520;10.248;2023-08-21T08:54:30;101639.13;;;29.21;53.37
2549;BME280;1284;53.520;10.248;2023-08-21T08:56:57;101649.81;;;29.32;52.71
2549;BME280;1284;53.520;10.248;2023-08-21T08:59:23;101647.28;;;29.25;52.59
2549;BME280;1284;53.520;10.248;2023-08-21T09:01:49;101644.25;;;29.32;51.84
2549;BME280;1284;53.520;10.248;2023-08-21T09:04:14;101642.25;;;29.51;50.66
2549;BME280;1284;53.520;10.248;2023-08-21T09:06:40;101647.84;;;29.69;50.75
2549;BME280;1284;53.520;10.248;2023-08-21T09:09:07;101640.25;;;29.60;50.10
2549;BME280;1284;53.520;10.248;2023-08-21T09:11:32;101651.84;;;29.68;50.33
2549;BME280;1284;53.520;10.248;2023-08-21T09:13:58;101644.59;;;29.61;49.48
2549;BME280;1284;53.520;10.248;2023-08-21T09:16:24;101646.28;;;29.59;49.17
2549;BME280;1284;53.520;10.248;2023-08-21T09:18:55;101658.38;;;29.83;50.54
2549;BME280;1284;53.520;10.248;2023-08-21T09:21:25;101652.50;;;29.90;50.72
2549;BME280;1284;53.520;10.248;2023-08-21T09:24:02;101656.97;;;29.78;50.92
2549;BME280;1284;53.520;10.248;2023-08-21T09:26:34;101642.16;;;29.90;49.62
2549;BME280;1284;53.520;10.248;2023-08-21T09:29:04;101654.50;;;29.89;50.26
2549;BME280;1284;53.520;10.248;2023-08-21T09:31:33;101649.38;;;29.70;50.21
2549;BME280;1284;53.520;10.248;2023-08-21T09:34:03;101645.38;;;29.89;49.88
2549;BME280;1284;53.520;10.248;2023-08-21T09:36:33;101642.47;;;30.01;50.07
2549;BME280;1284;53.520;10.248;2023-08-21T09:38:59;101645.06;;;30.14;50.60
2549;BME280;1284;53.520;10.248;2023-08-21T09:41:25;101647.50;;;30.39;49.27
2549;BME280;1284;53.520;10.248;2023-08-21T09:43:51;101637.38;;;30.69;48.49
2549;BME280;1284;53.520;10.248;2023-08-21T09:46:23;101643.50;;;30.82;48.44
2549;BME280;1284;53.520;10.248;2023-08-21T09:48:51;101641.47;;;30.91;48.28
2549;BME280;1284;53.520;10.248;2023-08-21T09:51:17;101644.53;;;31.02;47.63
2549;BME280;1284;53.520;10.248;2023-08-21T09:53:43;101639.72;;;31.03;46.53
2549;BME280;1284;53.520;10.248;2023-08-21T09:56:09;101637.72;;;31.03;47.04
2549;BME280;1284;53.520;10.248;2023-08-21T09:58:36;101638.63;;;31.33;46.35
2549;BME280;1284;53.520;10.248;2023-08-21T10:01:05;101633.56;;;31.23;46.24
2549;BME280;1284;53.520;10.248;2023-08-21T10:03:41;101631.78;;;31.43;46.00
2549;BME280;1284;53.520;10.248;2023-08-21T10:06:10;101638.16;;;31.58;45.73
2549;BME280;1284;53.520;10.248;2023-08-21T10:08:38;101640.38;;;31.69;45.62
2549;BME280;1284;53.520;10.248;2023-08-21T10:11:07;101635.53;;;31.78;44.69
2549;BME280;1284;53.520;10.248;2023-08-21T10:13:35;101625.72;;;31.83;44.75
2549;BME280;1284;53.520;10.248;2023-08-21T10:16:02;101635.16;;;31.85;45.50
2549;BME280;1284;53.520;10.248;2023-08-21T10:18:37;101635.59;;;31.93;44.31
2549;BME280;1284;53.520;10.248;2023-08-21T10:21:18;101635.09;;;31.94;43.95
2549;BME280;1284;53.520;10.248;2023-08-21T10:23:51;101636.94;;;32.12;44.06
2549;BME280;1284;53.520;10.248;2023-08-21T10:26:21;101626.94;;;32.20;44.60
2549;BME280;1284;53.520;10.248;2023-08-21T10:34:04;101631.56;;;32.23;43.09
2549;BME280;1284;53.520;10.248;2023-08-21T10:39:18;101633.38;;;32.41;42.44
2549;BME280;1284;53.520;10.248;2023-08-21T10:47:31;101633.28;;;31.68;43.53
2549;BME280;1284;53.520;10.248;2023-08-21T10:50:07;101636.25;;;31.17;44.82
2549;BME280;1284;53.520;10.248;2023-08-21T10:52:41;101636.47;;;31.37;44.19
2549;BME280;1284;53.520;10.248;2023-08-21T10:55:14;101641.13;;;31.31;44.09
2549;BME280;1284;53.520;10.248;2023-08-21T10:57:41;101638.44;;;31.13;43.81
2549;BME280;1284;53.520;10.248;2023-08-21T11:00:16;101637.34;;;30.87;43.91
2549;BME280;1284;53.520;10.248;2023-08-21T11:02:44;101635.16;;;30.82;43.89
2549;BME280;1284;53.520;10.248;2023-08-21T11:05:11;101645.09;;;30.74;44.13
2549;BME280;1284;53.520;10.248;2023-08-21T11:07:38;101630.47;;;30.55;43.31
2549;BME280;1284;53.520;10.248;2023-08-21T11:10:06;101632.78;;;30.57;43.63
2549;BME280;1284;53.520;10.248;2023-08-21T11:12:32;101632.69;;;30.84;43.24
2549;BME280;1284;53.520;10.248;2023-08-21T11:14:58;101628.25;;;31.10;42.13
2549;BME280;1284;53.520;10.248;2023-08-21T11:17:23;101633.16;;;31.15;42.13
2549;BME280;1284;53.520;10.248;2023-08-21T11:19:49;101636.09;;;31.44;41.58
2549;BME280;1284;53.520;10.248;2023-08-21T11:22:15;101635.25;;;31.76;40.73
2549;BME280;1284;53.520;10.248;2023-08-21T11:24:50;101635.09;;;31.94;41.00
2549;BME280;1284;53.520;10.248;2023-08-21T11:27:18;101639.94;;;32.09;41.44
2549;BME280;1284;53.520;10.248;2023-08-21T11:29:48;101630.22;;;32.19;41.61
2549;BME280;1284;53.520;10.248;2023-08-21T11:32:16;101628.41;;;32.30;41.27
2549;BME280;1284;53.520;10.248;2023-08-21T11:34:56;101629.47;;;32.47;41.30
2549;BME280;1284;53.520;10.248;2023-08-21T11:37:23;101628.13;;;32.57;42.17
2549;BME280;1284;53.520;10.248;2023-08-21T11:39:51;101631.94;;;32.60;41.60
2549;BME280;1284;53.520;10.248;2023-08-21T11:42:18;101633.78;;;32.63;41.51
2549;BME280;1284;53.520;10.248;2023-08-21T11:44:49;101633.78;;;32.63;41.00
2549;BME280;1284;53.520;10.248;2023-08-21T11:47:16;101635.41;;;32.69;40.31
2549;BME280;1284;53.520;10.248;2023-08-21T11:49:43;101637.94;;;32.67;40.82
2549;BME280;1284;53.520;10.248;2023-08-21T11:52:13;101634.66;;;32.69;40.52
2549;BME280;1284;53.520;10.248;2023-08-21T11:54:40;101638.47;;;32.71;40.48
2549;BME280;1284;53.520;10.248;2023-08-21T11:57:12;101634.44;;;32.58;40.61
2549;BME280;1284;53.520;10.248;2023-08-21T11:59:38;101628.69;;;32.47;40.97
2549;BME280;1284;53.520;10.248;2023-08-21T12:02:14;101628.50;;;32.50;40.29
2549;BME280;1284;53.520;10.248;2023-08-21T12:04:40;101628.00;;;32.66;39.96
2549;BME280;1284;53.520;10.248;2023-08-21T12:07:06;101632.81;;;32.66;40.52
2549;BME280;1284;53.520;10.248;2023-08-21T12:09:32;101630.34;;;32.53;40.03
2549;BME280;1284;53.520;10.248;2023-08-21T12:11:57;101629.06;;;32.40;40.00
2549;BME280;1284;53.520;10.248;2023-08-21T12:14:23;101625.00;;;31.97;39.35
2549;BME280;1284;53.520;10.248;2023-08-21T12:16:48;101627.69;;;32.06;39.81
2549;BME280;1284;53.520;10.248;2023-08-21T12:19:14;101628.97;;;32.20;38.42
2549;BME280;1284;53.520;10.248;2023-08-21T12:21:40;101627.91;;;32.03;38.45
2549;BME280;1284;53.520;10.248;2023-08-21T12:24:05;101622.44;;;31.84;39.16
2549;BME280;1284;53.520;10.248;2023-08-21T12:26:32;101620.25;;;31.88;40.08
2549;BME280;1284;53.520;10.248;2023-08-21T12:28:58;101617.81;;;32.05;39.67
2549;BME280;1284;53.520;10.248;2023-08-21T12:31:23;101625.97;;;32.09;38.90
2549;BME280;1284;53.520;10.248;2023-08-21T12:33:49;101624.25;;;32.26;38.04
2549;BME280;1284;53.520;10.248;2023-08-21T12:36:14;101622.81;;;32.16;37.76
2549;BME280;1284;53.520;10.248;2023-08-21T12:38:40;101619.34;;;32.06;38.57
2549;BME280;1284;53.520;10.248;2023-08-21T12:41:05;101608.97;;;32.07;39.11
2549;BME280;1284;53.520;10.248;2023-08-21T12:43:31;101609.53;;;32.11;39.57
2549;BME280;1284;53.520;10.248;2023-08-21T12:45:57;101622.41;;;32.08;39.88
2549;BME280;1284;53.520;10.248;2023-08-21T12:48:23;101619.81;;;32.05;39.55
2549;BME280;1284;53.520;10.248;2023-08-21T12:50:48;101618.00;;;32.02;39.10
2549;BME280;1284;53.520;10.248;2023-08-21T12:53:15;101613.09;;;31.96;39.87
2549;BME280;1284;53.520;10.248;2023-08-21T12:55:41;101614.97;;;31.90;40.45
2549;BME280;1284;53.520;10.248;2023-08-21T12:58:06;101617.34;;;31.83;40.61
2549;BME280;1284;53.520;10.248;2023-08-21T13:00:32;101616.28;;;31.80;41.02
2549;BME280;1284;53.520;10.248;2023-08-21T13:03:00;101607.72;;;31.69;40.08
2549;BME280;1284;53.520;10.248;2023-08-21T13:05:25;101604.00;;;31.72;40.62
2549;BME280;1284;53.520;10.248;2023-08-21T13:07:51;101612.47;;;31.78;41.34
2549;BME280;1284;53.520;10.248;2023-08-21T13:10:17;101612.66;;;31.74;41.54
2549;BME280;1284;53.520;10.248;2023-08-21T13:12:43;101619.75;;;31.75;40.73
2549;BME280;1284;53.520;10.248;2023-08-21T13:15:09;101612.50;;;31.54;40.44
2549;BME280;1284;53.520;10.248;2023-08-21T13:17:35;101620.28;;;31.50;41.08
2549;BME280;1284;53.520;10.248;2023-08-21T13:20:01;101610.72;;;31.42;40.82
2549;BME280;1284;53.520;10.248;2023-08-21T13:22:26;101611.06;;;31.35;41.54
2549;BME280;1284;53.520;10.248;2023-08-21T13:24:51;101610.69;;;31.19;39.74
2549;BME280;1284;53.520;10.248;2023-08-21T13:27:17;101596.38;;;31.11;40.39